createdAt,value
2018-05-24T00:02:12.250Z,17.10
2018-05-24T00:04:40.759Z,17.10
2018-05-24T00:07:09.054Z,17.00
2018-05-24T00:09:37.407Z,17.10
2018-05-24T00:12:05.701Z,17.00
2018-05-24T00:14:34.811Z,17.00
2018-05-24T00:17:03.111Z,17.00
2018-05-24T00:19:31.412Z,17.00
2018-05-24T00:21:59.718Z,17.00
2018-05-24T00:24:28.038Z,16.90
2018-05-24T00:26:57.147Z,16.90
2018-05-24T00:29:25.467Z,16.90
2018-05-24T00:31:53.985Z,16.90
2018-05-24T00:34:22.280Z,16.90
2018-05-24T00:36:50.252Z,16.90
2018-05-24T00:39:18.571Z,16.80
2018-05-24T00:41:46.884Z,16.80
2018-05-24T00:44:15.190Z,16.80
2018-05-24T00:46:45.101Z,16.80
2018-05-24T00:49:13.412Z,16.80
2018-05-24T00:51:41.725Z,16.80
2018-05-24T00:54:10.059Z,16.70
2018-05-24T00:56:38.355Z,16.80
2018-05-24T00:59:06.668Z,16.80
2018-05-24T01:01:34.979Z,16.70
2018-05-24T01:04:03.284Z,16.80
2018-05-24T01:06:31.593Z,16.80
2018-05-24T01:09:00.911Z,16.70
2018-05-24T01:11:29.217Z,16.70
2018-05-24T01:13:57.734Z,16.70
2018-05-24T01:16:26.026Z,16.70
2018-05-24T01:18:54.332Z,16.70
2018-05-24T01:21:22.653Z,16.70
2018-05-24T01:23:50.987Z,16.70
2018-05-24T01:26:18.947Z,16.70
2018-05-24T01:28:47.416Z,16.60
2018-05-24T01:31:15.726Z,16.60
2018-05-24T01:33:44.832Z,16.60
2018-05-24T01:36:13.887Z,16.60
2018-05-24T01:38:42.287Z,16.60
2018-05-24T01:41:10.748Z,16.60
2018-05-24T01:43:39.047Z,16.60
2018-05-24T01:46:07.353Z,16.60
2018-05-24T01:48:35.649Z,16.60
2018-05-24T01:51:03.974Z,16.60
2018-05-24T01:53:32.286Z,16.60
2018-05-24T01:56:00.589Z,16.60
2018-05-24T01:58:29.700Z,16.60
2018-05-24T02:00:58.131Z,16.60
2018-05-24T02:03:26.423Z,16.60
2018-05-24T02:05:54.730Z,16.60
2018-05-24T02:08:23.039Z,16.50
2018-05-24T02:10:51.343Z,16.50
2018-05-24T02:13:19.699Z,16.50
2018-05-24T02:15:48.032Z,16.50
2018-05-24T02:18:16.329Z,16.50
2018-05-24T02:20:44.618Z,16.40
2018-05-24T02:23:13.700Z,16.50
2018-05-24T02:25:42.004Z,16.40
2018-05-24T02:28:10.311Z,16.40
2018-05-24T02:30:38.801Z,16.50
2018-05-24T02:33:07.095Z,16.40
2018-05-24T02:35:35.417Z,16.40
2018-05-24T02:38:03.758Z,16.30
2018-05-24T02:40:31.736Z,16.30
2018-05-24T02:43:00.058Z,16.30
2018-05-24T02:45:28.555Z,16.20
2018-05-24T02:47:57.661Z,16.20
2018-05-24T02:50:25.987Z,16.20
2018-05-24T02:52:54.483Z,16.20
2018-05-24T02:55:22.795Z,16.20
2018-05-24T02:57:51.112Z,16.20
2018-05-24T03:00:19.404Z,16.10
2018-05-24T03:02:47.722Z,16.10
2018-05-24T03:05:16.030Z,16.00
2018-05-24T03:07:49.712Z,16.00
2018-05-24T03:10:18.017Z,16.00
2018-05-24T03:12:47.094Z,15.90
2018-05-24T03:15:15.455Z,15.90
2018-05-24T03:17:43.771Z,15.90
2018-05-24T03:20:12.083Z,15.90
2018-05-24T03:22:40.394Z,15.90
2018-05-24T03:25:08.720Z,15.80
2018-05-24T03:27:37.024Z,15.90
2018-05-24T03:30:05.350Z,15.90
2018-05-24T03:32:33.732Z,15.90
2018-05-24T03:35:02.042Z,15.90
2018-05-24T03:37:30.379Z,15.80
2018-05-24T03:39:58.855Z,15.80
2018-05-24T03:42:27.176Z,15.80
2018-05-24T03:44:55.472Z,15.80
2018-05-24T03:47:26.564Z,15.80
2018-05-24T03:49:54.873Z,15.80
2018-05-24T03:52:23.171Z,15.80
2018-05-24T03:54:51.483Z,15.80
2018-05-24T03:57:19.784Z,15.80
2018-05-24T04:00:08.256Z,15.80
2018-05-24T04:02:47.822Z,15.80
2018-05-24T04:05:16.156Z,15.90
2018-05-24T04:07:45.642Z,15.90
2018-05-24T04:10:13.940Z,15.90
2018-05-24T04:12:42.267Z,15.90
2018-05-24T04:15:10.585Z,15.90
2018-05-24T04:17:38.885Z,16.00
2018-05-24T04:20:07.198Z,16.00
2018-05-24T04:22:35.541Z,16.00
2018-05-24T04:25:04.290Z,16.10
2018-05-24T04:27:32.605Z,16.10
2018-05-24T04:30:01.099Z,16.20
2018-05-24T04:32:29.416Z,16.20
2018-05-24T04:34:57.733Z,16.20
2018-05-24T04:37:26.059Z,16.20
2018-05-24T04:39:54.164Z,16.30
2018-05-24T04:42:22.468Z,16.40
2018-05-24T04:44:51.552Z,16.40
2018-05-24T04:47:19.872Z,16.40
2018-05-24T04:49:48.959Z,16.50
2018-05-24T04:52:17.322Z,16.50
2018-05-24T04:54:45.935Z,16.50
2018-05-24T04:57:14.251Z,16.50
2018-05-24T04:59:42.585Z,16.60
2018-05-24T05:02:10.884Z,16.60
2018-05-24T05:04:39.226Z,16.60
2018-05-24T05:07:07.738Z,16.70
2018-05-24T05:09:36.036Z,16.70
2018-05-24T05:12:07.425Z,16.70
2018-05-24T05:14:35.801Z,16.70
2018-05-24T05:17:04.888Z,16.80
2018-05-24T05:19:33.202Z,16.90
2018-05-24T05:22:01.722Z,17.00
2018-05-24T05:24:30.036Z,17.10
2018-05-24T05:26:58.105Z,17.20
2018-05-24T05:29:26.431Z,17.40
2018-05-24T05:31:54.747Z,17.50
2018-05-24T05:34:23.227Z,17.60
2018-05-24T05:36:53.074Z,17.80
2018-05-24T05:39:21.377Z,17.90
2018-05-24T05:41:49.700Z,18.10
2018-05-24T05:44:18.023Z,18.20
2018-05-24T05:46:47.104Z,18.50
2018-05-24T05:49:15.462Z,18.50
2018-05-24T05:51:43.760Z,18.70
2018-05-24T05:54:12.102Z,18.80
2018-05-24T05:56:40.492Z,18.90
2018-05-24T05:59:08.808Z,19.10
2018-05-24T06:01:37.185Z,19.20
2018-05-24T06:04:07.362Z,19.40
2018-05-24T06:06:35.674Z,19.50
2018-05-24T06:09:03.179Z,19.60
2018-05-24T06:11:31.516Z,19.70
2018-05-24T06:13:59.650Z,19.80
2018-05-24T06:16:28.742Z,20.00
2018-05-24T06:18:57.159Z,20.00
2018-05-24T06:21:25.463Z,20.10
2018-05-24T06:23:54.337Z,20.20
2018-05-24T06:26:22.657Z,20.30
2018-05-24T06:28:51.551Z,20.30
2018-05-24T06:31:20.434Z,20.40
2018-05-24T06:33:49.300Z,20.60
2018-05-24T06:36:18.236Z,20.70
2018-05-24T06:38:47.143Z,20.80
2018-05-24T06:41:16.018Z,20.90
2018-05-24T06:43:44.914Z,21.00
2018-05-24T06:46:13.779Z,21.00
2018-05-24T06:48:43.429Z,21.30
2018-05-24T06:51:12.283Z,21.30
2018-05-24T06:53:41.626Z,21.40
2018-05-24T06:56:10.589Z,21.40
2018-05-24T06:58:39.481Z,21.40
2018-05-24T07:01:08.570Z,21.40
2018-05-24T07:03:37.608Z,21.40
2018-05-24T07:06:07.278Z,21.50
2018-05-24T07:08:36.148Z,21.50
2018-05-24T07:11:05.930Z,21.50
2018-05-24T07:13:35.684Z,21.50
2018-05-24T07:16:04.836Z,21.50
2018-05-24T07:18:33.725Z,21.50
2018-05-24T07:21:02.808Z,21.50
2018-05-24T07:23:31.684Z,21.40
2018-05-24T07:26:00.723Z,21.50
2018-05-24T07:28:29.590Z,21.60
2018-05-24T07:30:58.658Z,21.60
2018-05-24T07:33:27.556Z,21.60
2018-05-24T07:35:56.435Z,21.70
2018-05-24T07:38:25.372Z,21.70
2018-05-24T07:40:54.243Z,21.80
2018-05-24T07:43:23.142Z,21.80
2018-05-24T07:45:51.999Z,21.80
2018-05-24T07:48:21.677Z,21.90
2018-05-24T07:53:25.212Z,21.90
2018-05-24T07:55:54.076Z,21.90
2018-05-24T07:58:22.960Z,21.90
2018-05-24T08:00:51.829Z,21.90
2018-05-24T08:03:20.737Z,22.00
2018-05-24T08:05:49.633Z,22.00
2018-05-24T08:08:18.728Z,22.00
2018-05-24T08:10:47.606Z,22.20
2018-05-24T08:13:16.465Z,22.20
2018-05-24T08:15:44.800Z,22.20
2018-05-24T08:18:13.689Z,22.20
2018-05-24T08:20:42.580Z,22.20
2018-05-24T08:23:11.450Z,22.20
2018-05-24T08:25:40.382Z,22.20
2018-05-24T08:28:09.282Z,22.20
2018-05-24T08:30:38.321Z,22.00
2018-05-24T08:33:07.187Z,21.90
2018-05-24T08:35:36.107Z,21.80
2018-05-24T08:38:05.750Z,21.60
2018-05-24T08:40:34.715Z,21.60
2018-05-24T08:43:03.748Z,21.40
2018-05-24T08:45:32.619Z,21.30
2018-05-24T08:48:01.546Z,21.10
2018-05-24T08:50:30.436Z,21.00
2018-05-24T08:52:59.299Z,21.00
2018-05-24T08:55:28.980Z,20.80
2018-05-24T08:57:57.857Z,20.80
2018-05-24T09:00:26.833Z,20.90
2018-05-24T09:02:55.459Z,21.00
2018-05-24T09:05:24.347Z,21.00
2018-05-24T09:07:53.226Z,21.00
2018-05-24T09:10:22.120Z,21.20
2018-05-24T09:12:50.994Z,21.30
2018-05-24T09:15:19.901Z,21.50
2018-05-24T09:17:49.540Z,22.10
2018-05-24T09:20:18.507Z,22.10
2018-05-24T09:22:47.513Z,22.30
2018-05-24T09:25:16.405Z,22.40
2018-05-24T09:27:46.060Z,22.70
2018-05-24T09:30:14.984Z,22.70
2018-05-24T09:32:43.844Z,22.90
2018-05-24T09:35:12.733Z,23.00
2018-05-24T09:37:41.628Z,23.10
2018-05-24T09:40:10.517Z,23.30
2018-05-24T09:42:39.425Z,23.30
2018-05-24T09:45:08.288Z,23.30
2018-05-24T09:47:37.186Z,23.30
2018-05-24T09:50:06.059Z,23.30
2018-05-24T09:52:34.931Z,23.30
2018-05-24T09:55:03.860Z,23.30
2018-05-24T09:57:32.745Z,23.30
2018-05-24T10:00:01.646Z,23.30
2018-05-24T10:02:30.992Z,23.30
2018-05-24T10:04:59.860Z,23.50
2018-05-24T10:07:28.923Z,23.70
2018-05-24T10:09:57.798Z,23.80
2018-05-24T10:12:26.465Z,23.90
2018-05-24T10:14:55.342Z,23.80
2018-05-24T10:17:23.889Z,24.00
2018-05-24T10:19:52.778Z,24.30
2018-05-24T10:22:22.444Z,24.60
2018-05-24T10:24:51.439Z,24.60
2018-05-24T10:27:20.342Z,24.70
2018-05-24T10:29:49.429Z,24.70
2018-05-24T10:32:18.314Z,24.50
2018-05-24T10:34:47.228Z,24.30
2018-05-24T10:37:16.081Z,24.00
2018-05-24T10:39:44.973Z,23.70
2018-05-24T10:42:13.835Z,23.60
2018-05-24T10:44:42.739Z,23.40
2018-05-24T10:47:11.406Z,23.40
2018-05-24T10:49:40.295Z,23.40
2018-05-24T10:52:09.163Z,23.50
2018-05-24T10:54:38.037Z,23.70
2018-05-24T10:57:06.915Z,23.70
2018-05-24T10:59:35.822Z,23.60
2018-05-24T11:02:04.888Z,23.60
2018-05-24T11:04:33.805Z,23.40
2018-05-24T11:07:02.705Z,23.40
2018-05-24T11:09:31.612Z,23.30
2018-05-24T11:12:00.497Z,23.40
2018-05-24T11:14:29.464Z,23.30
2018-05-24T11:16:58.461Z,23.20
2018-05-24T11:19:27.341Z,23.30
2018-05-24T11:21:56.227Z,23.20
2018-05-24T11:24:25.116Z,23.10
2018-05-24T11:26:53.994Z,23.00
2018-05-24T11:29:22.902Z,22.90
2018-05-24T11:31:51.902Z,22.60
2018-05-24T11:34:20.883Z,22.30
2018-05-24T11:36:49.762Z,22.00
2018-05-24T11:39:19.447Z,21.80
2018-05-24T11:41:48.338Z,21.70
2018-05-24T11:44:17.221Z,21.70
2018-05-24T11:46:46.293Z,21.70
2018-05-24T11:49:15.184Z,21.70
2018-05-24T11:51:44.079Z,21.80
2018-05-24T11:54:12.969Z,21.90
2018-05-24T11:56:41.568Z,22.20
2018-05-24T11:59:10.457Z,22.40
2018-05-24T12:01:39.354Z,22.60
2018-05-24T12:04:08.253Z,22.80
2018-05-24T12:06:37.131Z,23.10
2018-05-24T12:09:05.481Z,23.30
2018-05-24T12:11:34.377Z,23.50
2018-05-24T12:14:03.282Z,23.70
2018-05-24T12:16:32.167Z,23.80
2018-05-24T12:19:01.047Z,23.60
2018-05-24T12:21:29.925Z,23.30
2018-05-24T12:23:58.955Z,23.20
2018-05-24T12:26:28.133Z,23.10
2018-05-24T12:28:57.025Z,23.00
2018-05-24T12:31:25.895Z,23.00
2018-05-24T12:33:54.814Z,23.00
2018-05-24T12:36:23.698Z,22.90
2018-05-24T12:38:52.586Z,22.70
2018-05-24T12:41:20.921Z,22.50
2018-05-24T12:43:49.813Z,22.30
2018-05-24T12:46:18.695Z,22.40
2018-05-24T12:48:47.612Z,22.30
2018-05-24T12:51:16.534Z,22.40
2018-05-24T12:53:46.293Z,22.70
2018-05-24T12:56:15.207Z,22.60
2018-05-24T12:58:44.098Z,23.00
2018-05-24T13:01:12.984Z,23.10
2018-05-24T13:03:41.879Z,23.40
2018-05-24T13:06:10.772Z,23.40
2018-05-24T13:08:39.666Z,23.60
2018-05-24T13:11:08.610Z,23.80
2018-05-24T13:13:38.219Z,24.10
2018-05-24T13:16:07.119Z,24.20
2018-05-24T13:18:36.087Z,24.30
2018-05-24T13:21:05.023Z,24.30
2018-05-24T13:23:33.939Z,24.30
2018-05-24T13:26:02.824Z,24.30
2018-05-24T13:28:31.704Z,24.20
2018-05-24T13:31:00.595Z,24.20
2018-05-24T13:33:29.207Z,24.20
2018-05-24T13:35:58.096Z,24.20
2018-05-24T13:38:26.968Z,24.10
2018-05-24T13:40:55.897Z,24.00
2018-05-24T13:43:24.808Z,23.90
2018-05-24T13:45:53.707Z,23.90
2018-05-24T13:48:22.590Z,23.80
2018-05-24T13:50:51.531Z,23.60
2018-05-24T13:53:20.425Z,23.50
2018-05-24T13:55:49.323Z,23.50
2018-05-24T13:58:19.245Z,23.10
2018-05-24T14:00:48.948Z,22.90
2018-05-24T14:03:17.846Z,22.90
2018-05-24T14:05:46.748Z,22.80
2018-05-24T14:08:16.438Z,22.40
2018-05-24T14:10:45.335Z,22.30
2018-05-24T14:13:14.276Z,22.30
2018-05-24T14:15:43.203Z,22.10
2018-05-24T14:18:12.119Z,21.90
2018-05-24T14:20:41.134Z,21.70
2018-05-24T14:23:10.029Z,21.60
2018-05-24T14:25:38.945Z,21.40
2018-05-24T14:28:07.880Z,21.20
2018-05-24T14:30:36.795Z,21.10
2018-05-24T14:33:05.695Z,21.00
2018-05-24T14:35:34.618Z,21.00
2018-05-24T14:38:04.038Z,21.00
2018-05-24T14:40:32.935Z,20.90
2018-05-24T14:43:01.845Z,21.00
2018-05-24T14:45:30.757Z,21.00
2018-05-24T14:50:53.393Z,21.10
2018-05-24T14:53:22.319Z,21.10
2018-05-24T14:55:51.225Z,21.10
2018-05-24T14:58:20.319Z,21.10
2018-05-24T15:00:49.215Z,21.20
2018-05-24T15:03:18.121Z,21.10
2018-05-24T15:05:47.256Z,21.20
2018-05-24T15:08:16.170Z,21.20
2018-05-24T15:10:45.216Z,21.20
2018-05-24T15:13:25.449Z,21.20
2018-05-24T15:15:54.374Z,21.30
2018-05-24T15:18:24.155Z,21.40
2018-05-24T15:20:53.070Z,21.40
2018-05-24T15:23:31.059Z,21.40
2018-05-24T15:25:59.950Z,21.50
2018-05-24T15:28:28.860Z,21.50
2018-05-24T15:30:57.848Z,21.60
2018-05-24T15:33:26.828Z,21.70
2018-05-24T15:35:55.890Z,21.70
2018-05-24T15:38:24.851Z,21.80
2018-05-24T15:40:53.770Z,21.80
2018-05-24T15:43:22.942Z,21.90
2018-05-24T15:45:51.873Z,21.80
2018-05-24T15:48:20.776Z,21.80
2018-05-24T15:50:49.732Z,21.90
2018-05-24T15:53:18.835Z,22.00
2018-05-24T15:55:47.713Z,22.00
2018-05-24T15:58:16.657Z,22.00
2018-05-24T16:00:45.549Z,22.10
2018-05-24T16:03:15.239Z,22.20
2018-05-24T16:05:44.168Z,22.20
2018-05-24T16:08:13.138Z,22.20
2018-05-24T16:10:42.032Z,22.30
2018-05-24T16:13:10.987Z,22.30
2018-05-24T16:15:39.955Z,22.40
2018-05-24T16:18:08.871Z,22.40
2018-05-24T16:20:37.778Z,22.50
2018-05-24T16:23:06.676Z,22.50
2018-05-24T16:25:35.019Z,22.50
2018-05-24T16:28:03.947Z,22.60
2018-05-24T16:30:32.826Z,22.50
2018-05-24T16:33:01.727Z,22.50
2018-05-24T16:35:30.617Z,22.40
2018-05-24T16:37:59.488Z,22.40
2018-05-24T16:40:28.425Z,22.40
2018-05-24T16:42:57.324Z,22.40
2018-05-24T16:45:26.195Z,22.20
2018-05-24T16:47:55.086Z,22.30
2018-05-24T16:50:23.963Z,22.30
2018-05-24T16:52:52.842Z,22.20
2018-05-24T16:55:21.738Z,22.30
2018-05-24T16:57:50.637Z,22.40
2018-05-24T17:00:19.523Z,22.40
2018-05-24T17:02:48.404Z,22.50
2018-05-24T17:05:17.320Z,22.60
2018-05-24T17:07:46.438Z,22.60
2018-05-24T17:10:15.166Z,22.60
2018-05-24T17:12:44.061Z,22.50
2018-05-24T17:15:12.933Z,22.40
2018-05-24T17:17:41.841Z,22.50
2018-05-24T17:20:10.753Z,22.50
2018-05-24T17:22:39.625Z,22.40
2018-05-24T17:25:08.506Z,22.30
2018-05-24T17:27:37.458Z,22.30
2018-05-24T17:30:06.349Z,22.30
2018-05-24T17:32:35.282Z,22.30
2018-05-24T17:35:04.489Z,22.30
2018-05-24T17:37:33.437Z,22.40
2018-05-24T17:40:02.309Z,22.30
2018-05-24T17:42:32.004Z,22.40
2018-05-24T17:45:01.114Z,22.30
2018-05-24T17:47:30.037Z,22.40
2018-05-24T17:49:58.954Z,22.40
2018-05-24T17:52:27.992Z,22.40
2018-05-24T17:54:58.133Z,22.50
2018-05-24T17:57:27.413Z,22.50
2018-05-24T17:59:56.364Z,22.60
2018-05-24T18:02:25.413Z,22.50
2018-05-24T18:04:54.312Z,22.60
2018-05-24T18:07:23.203Z,22.50
2018-05-24T18:09:52.550Z,22.50
2018-05-24T18:12:21.486Z,22.50
2018-05-24T18:14:50.437Z,22.40
2018-05-24T18:17:19.510Z,22.20
2018-05-24T18:19:48.421Z,22.20
2018-05-24T18:22:17.139Z,22.10
2018-05-24T18:24:46.099Z,22.00
2018-05-24T18:27:15.088Z,22.00
2018-05-24T18:29:43.998Z,21.90
2018-05-24T18:32:12.883Z,21.90
2018-05-24T18:34:41.249Z,21.80
2018-05-24T18:37:10.176Z,21.70
2018-05-24T18:39:39.239Z,21.70
2018-05-24T18:42:08.905Z,21.50
2018-05-24T18:44:37.807Z,21.50
2018-05-24T18:47:06.730Z,21.50
2018-05-24T18:49:35.643Z,21.40
2018-05-24T18:52:05.220Z,21.40
2018-05-24T18:54:34.113Z,21.30
2018-05-24T18:57:03.042Z,21.30
2018-05-24T18:59:32.047Z,21.20
2018-05-24T19:02:00.985Z,21.10
2018-05-24T19:04:30.250Z,21.10
2018-05-24T19:06:59.183Z,20.90
2018-05-24T19:09:28.224Z,20.90
2018-05-24T19:11:57.140Z,20.90
2018-05-24T19:14:25.775Z,20.90
2018-05-24T19:16:54.707Z,20.80
2018-05-24T19:19:23.616Z,20.70
2018-05-24T19:21:52.528Z,20.70
2018-05-24T19:24:22.201Z,20.50
2018-05-24T19:26:51.102Z,20.50
2018-05-24T19:29:20.044Z,20.50
2018-05-24T19:31:48.951Z,20.40
2018-05-24T19:34:18.041Z,20.40
2018-05-24T19:36:46.915Z,20.40
2018-05-24T19:39:15.820Z,20.30
2018-05-24T19:41:44.728Z,20.30
2018-05-24T19:44:13.779Z,20.20
2018-05-24T19:46:42.678Z,20.20
2018-05-24T19:49:11.615Z,20.10
2018-05-24T19:51:40.516Z,20.10
2018-05-24T19:54:09.424Z,20.10
2018-05-24T19:56:38.326Z,20.00
2018-05-24T19:59:07.239Z,20.00
2018-05-24T20:01:36.162Z,20.00
2018-05-24T20:04:05.846Z,20.00
2018-05-24T20:06:34.746Z,19.90
2018-05-24T20:09:03.186Z,19.90
2018-05-24T20:11:32.089Z,19.80
2018-05-24T20:14:01.048Z,19.80
2018-05-24T20:16:29.937Z,19.70
2018-05-24T20:18:58.834Z,19.70
2018-05-24T20:21:27.716Z,19.70
2018-05-24T20:23:56.666Z,19.70
2018-05-24T20:26:25.023Z,19.70
2018-05-24T20:28:54.091Z,19.70
2018-05-24T20:31:23.102Z,19.70
2018-05-24T20:33:51.430Z,19.70
2018-05-24T20:36:20.345Z,19.70
2018-05-24T20:38:48.695Z,19.60
2018-05-24T20:41:17.598Z,19.60
2018-05-24T20:43:45.954Z,19.60
2018-05-24T20:46:14.260Z,19.60
2018-05-24T20:48:42.377Z,19.50
2018-05-24T20:51:10.706Z,19.50
2018-05-24T20:53:39.912Z,19.40
2018-05-24T20:56:08.217Z,19.40
2018-05-24T20:58:39.714Z,19.40
2018-05-24T21:01:08.052Z,19.30
2018-05-24T21:03:36.975Z,19.30
2018-05-24T21:06:05.331Z,19.30
2018-05-24T21:08:33.318Z,19.30
2018-05-24T21:11:01.663Z,19.20
2018-05-24T21:13:30.004Z,19.20
2018-05-24T21:15:59.114Z,19.20
2018-05-24T21:18:27.462Z,19.10
2018-05-24T21:20:55.815Z,19.10
2018-05-24T21:23:24.181Z,19.10
2018-05-24T21:25:52.521Z,19.00
2018-05-24T21:28:20.831Z,19.00
2018-05-24T21:30:49.170Z,19.00
2018-05-24T21:33:17.480Z,19.00
2018-05-24T21:35:46.589Z,18.90
2018-05-24T21:38:14.905Z,18.90
2018-05-24T21:40:43.223Z,18.90
2018-05-24T21:43:11.600Z,18.90
2018-05-24T21:45:39.929Z,18.90
2018-05-24T21:48:08.261Z,18.90
2018-05-24T21:50:36.602Z,18.90
2018-05-24T21:53:10.904Z,18.90
2018-05-24T21:55:39.230Z,18.90
2018-05-24T21:58:10.727Z,18.90
2018-05-24T22:00:45.348Z,18.90
2018-05-24T22:03:13.708Z,18.90
2018-05-24T22:05:42.030Z,18.90
2018-05-24T22:08:11.130Z,18.90
2018-05-24T22:10:39.500Z,18.90
2018-05-24T22:13:08.583Z,18.80
2018-05-24T22:15:36.907Z,18.80
2018-05-24T22:18:04.907Z,18.80
2018-05-24T22:20:33.235Z,18.80
2018-05-24T22:23:02.382Z,18.80
2018-05-24T22:25:30.706Z,18.80
2018-05-24T22:27:59.038Z,18.80
2018-05-24T22:30:27.371Z,18.80
2018-05-24T22:32:55.723Z,18.80
2018-05-24T22:35:24.057Z,18.80
2018-05-24T22:37:52.389Z,18.80
2018-05-24T22:40:20.732Z,18.80
2018-05-24T22:42:49.812Z,18.80
2018-05-24T22:45:18.128Z,18.70
2018-05-24T22:47:46.483Z,18.80
2018-05-24T22:50:15.575Z,18.80
2018-05-24T22:52:44.144Z,18.80
2018-05-24T22:55:12.453Z,18.80
2018-05-24T22:57:40.774Z,18.70
2018-05-24T23:00:08.872Z,18.80
2018-05-24T23:02:37.207Z,18.70
2018-05-24T23:05:05.458Z,18.70
2018-05-24T23:07:33.907Z,18.70
2018-05-24T23:10:02.219Z,18.70
2018-05-24T23:12:30.547Z,18.60
2018-05-24T23:14:58.879Z,18.60
2018-05-24T23:17:27.202Z,18.60
2018-05-24T23:19:55.528Z,18.60
2018-05-24T23:22:35.697Z,18.50
2018-05-24T23:25:03.699Z,18.50
2018-05-24T23:27:32.031Z,18.50
2018-05-24T23:30:00.344Z,18.50
2018-05-24T23:32:28.884Z,18.50
2018-05-24T23:34:57.214Z,18.50
2018-05-24T23:37:25.529Z,18.50
2018-05-24T23:39:53.851Z,18.50
2018-05-24T23:42:22.192Z,18.50
2018-05-24T23:44:51.317Z,18.50
2018-05-24T23:47:19.619Z,18.50
2018-05-24T23:49:47.947Z,18.50
2018-05-24T23:52:17.048Z,18.50
2018-05-24T23:54:46.487Z,18.40
2018-05-24T23:57:14.820Z,18.50
2018-05-24T23:59:43.163Z,18.40
